createdAt,value
2024-01-26T00:02:01.404Z,1.57
2024-01-26T00:05:17.403Z,1.72
2024-01-26T00:08:27.964Z,1.80
2024-01-26T00:11:41.784Z,1.77
2024-01-26T00:14:53.621Z,1.65
2024-01-26T00:18:06.671Z,2.85
2024-01-26T00:24:25.745Z,1.95
2024-01-26T00:27:38.474Z,1.95
2024-01-26T00:30:50.151Z,1.82
2024-01-26T00:34:03.555Z,2.20
2024-01-26T00:37:14.836Z,2.22
2024-01-26T00:40:24.558Z,2.47
2024-01-26T00:43:35.629Z,1.87
2024-01-26T00:46:47.201Z,2.02
2024-01-26T00:49:59.833Z,1.75
2024-01-26T00:53:11.937Z,2.20
2024-01-26T00:56:22.035Z,1.42
2024-01-26T00:59:33.440Z,1.70
2024-01-26T01:02:45.747Z,1.27
2024-01-26T01:05:57.098Z,1.75
2024-01-26T01:09:08.980Z,1.70
2024-01-26T01:12:20.843Z,1.17
2024-01-26T01:15:33.718Z,1.47
2024-01-26T01:18:44.693Z,1.37
2024-01-26T01:21:57.515Z,1.82
2024-01-26T01:25:09.808Z,1.92
2024-01-26T01:28:22.385Z,1.57
2024-01-26T01:31:34.734Z,1.65
2024-01-26T01:34:45.464Z,1.77
2024-01-26T01:37:55.344Z,1.92
2024-01-26T01:41:07.516Z,1.62
2024-01-26T01:44:22.270Z,1.40
2024-01-26T01:47:34.552Z,1.75
2024-01-26T01:50:47.164Z,2.00
2024-01-26T01:53:58.806Z,1.98
2024-01-26T01:57:10.381Z,1.87
2024-01-26T02:00:24.449Z,1.65
2024-01-26T02:03:34.991Z,1.57
2024-01-26T02:06:45.570Z,1.62
2024-01-26T02:09:59.805Z,1.60
2024-01-26T02:13:13.766Z,1.45
2024-01-26T02:16:25.187Z,1.75
2024-01-26T02:19:35.283Z,1.42
2024-01-26T02:22:47.089Z,1.62
2024-01-26T02:25:59.580Z,1.40
2024-01-26T02:29:12.868Z,1.82
2024-01-26T02:32:23.877Z,1.57
2024-01-26T02:35:37.152Z,2.00
2024-01-26T02:38:49.877Z,1.65
2024-01-26T02:42:00.520Z,1.72
2024-01-26T02:45:15.936Z,1.72
2024-01-26T02:48:29.962Z,1.92
2024-01-26T02:51:41.139Z,2.08
2024-01-26T02:54:53.499Z,1.82
2024-01-26T02:58:04.573Z,1.70
2024-01-26T03:01:15.462Z,1.45
2024-01-26T03:04:26.279Z,1.67
2024-01-26T03:07:39.480Z,1.85
2024-01-26T03:10:53.596Z,2.15
2024-01-26T03:14:04.308Z,2.10
2024-01-26T03:17:18.572Z,2.55
2024-01-26T03:20:31.078Z,1.82
2024-01-26T03:23:42.668Z,2.62
2024-01-26T03:26:54.122Z,2.42
2024-01-26T03:30:05.709Z,2.25
2024-01-26T03:33:21.215Z,2.60
2024-01-26T03:36:35.831Z,2.27
2024-01-26T03:39:45.193Z,3.40
2024-01-26T03:42:53.469Z,2.60
2024-01-26T03:46:03.895Z,2.20
2024-01-26T03:49:14.215Z,2.87
2024-01-26T03:52:26.079Z,2.75
2024-01-26T03:55:41.107Z,3.52
2024-01-26T03:58:50.133Z,2.67
2024-01-26T04:02:02.896Z,2.83
2024-01-26T04:05:16.767Z,3.22
2024-01-26T04:08:26.657Z,2.72
2024-01-26T04:11:37.498Z,2.77
2024-01-26T04:14:50.416Z,2.35
2024-01-26T04:18:03.365Z,2.05
2024-01-26T04:21:15.155Z,2.52
2024-01-26T04:24:27.239Z,2.67
2024-01-26T04:27:41.926Z,2.58
2024-01-26T04:30:51.111Z,2.27
2024-01-26T04:34:02.869Z,1.92
2024-01-26T04:37:15.280Z,2.15
2024-01-26T04:40:28.213Z,2.07
2024-01-26T04:43:40.909Z,1.55
2024-01-26T04:46:50.212Z,2.33
2024-01-26T04:50:03.771Z,1.92
2024-01-26T04:53:14.692Z,1.75
2024-01-26T04:56:30.837Z,2.27
2024-01-26T04:59:39.052Z,2.52
2024-01-26T05:02:51.127Z,1.65
2024-01-26T05:06:01.025Z,1.82
2024-01-26T05:09:10.889Z,2.20
2024-01-26T05:12:19.818Z,1.70
2024-01-26T05:15:29.344Z,1.62
2024-01-26T05:18:39.685Z,1.87
2024-01-26T05:21:50.434Z,1.77
2024-01-26T05:25:03.038Z,1.80
2024-01-26T05:28:18.209Z,1.52
2024-01-26T05:31:29.792Z,2.55
2024-01-26T05:34:40.449Z,1.95
2024-01-26T05:37:50.200Z,1.90
2024-01-26T05:41:02.670Z,2.33
2024-01-26T05:44:12.475Z,2.02
2024-01-26T05:47:23.243Z,1.90
2024-01-26T05:50:35.295Z,2.40
2024-01-26T05:53:46.116Z,2.27
2024-01-26T05:56:58.611Z,1.67
2024-01-26T06:00:09.473Z,2.00
2024-01-26T06:03:20.061Z,1.77
2024-01-26T06:06:30.790Z,2.75
2024-01-26T06:09:43.770Z,2.33
2024-01-26T06:12:53.798Z,1.95
2024-01-26T06:16:04.294Z,1.45
2024-01-26T06:19:11.909Z,1.77
2024-01-26T06:22:25.522Z,1.98
2024-01-26T06:25:37.181Z,1.92
2024-01-26T06:28:48.160Z,1.50
2024-01-26T06:31:58.135Z,1.87
2024-01-26T06:35:10.155Z,1.95
2024-01-26T06:38:22.180Z,1.90
2024-01-26T06:41:33.666Z,1.30
2024-01-26T06:44:46.162Z,1.35
2024-01-26T06:47:56.481Z,1.37
2024-01-26T06:51:05.226Z,1.30
2024-01-26T06:54:14.421Z,1.62
2024-01-26T06:57:27.593Z,0.95
2024-01-26T07:00:45.680Z,1.35
2024-01-26T07:03:55.769Z,1.37
2024-01-26T07:07:08.757Z,1.17
2024-01-26T07:10:20.701Z,1.30
2024-01-26T07:13:33.777Z,1.37
2024-01-26T07:16:44.658Z,1.00
2024-01-26T07:19:54.855Z,1.10
2024-01-26T07:23:07.000Z,1.42
2024-01-26T07:26:18.747Z,1.12
2024-01-26T07:29:28.447Z,0.90
2024-01-26T07:32:39.493Z,1.12
2024-01-26T07:35:53.456Z,1.27
2024-01-26T07:39:03.761Z,1.07
2024-01-26T07:42:13.912Z,0.80
2024-01-26T07:45:26.002Z,1.27
2024-01-26T07:48:39.198Z,1.20
2024-01-26T07:51:53.473Z,1.00
2024-01-26T07:55:06.621Z,0.90
2024-01-26T07:58:19.245Z,0.70
2024-01-26T08:01:30.912Z,1.35
2024-01-26T08:04:42.003Z,0.65
2024-01-26T08:07:51.757Z,1.05
2024-01-26T08:11:04.592Z,1.05
2024-01-26T08:14:17.290Z,1.07
2024-01-26T08:17:28.224Z,0.78
2024-01-26T08:20:42.476Z,0.98
2024-01-26T08:23:52.765Z,0.85
2024-01-26T08:27:06.104Z,1.17
2024-01-26T08:33:26.080Z,1.15
2024-01-26T08:36:36.220Z,1.15
2024-01-26T08:39:50.335Z,0.93
2024-01-26T08:43:02.543Z,0.90
2024-01-26T08:46:17.783Z,1.45
2024-01-26T08:49:28.141Z,1.02
2024-01-26T08:52:38.682Z,1.10
2024-01-26T08:55:52.880Z,0.72
2024-01-26T08:59:05.442Z,0.90
2024-01-26T09:02:18.095Z,0.72
2024-01-26T09:05:27.954Z,0.82
2024-01-26T09:08:38.698Z,0.70
2024-01-26T09:11:49.324Z,0.62
2024-01-26T09:15:00.508Z,0.70
2024-01-26T09:18:14.639Z,0.80
2024-01-26T09:21:26.734Z,0.57
2024-01-26T09:24:37.777Z,0.95
2024-01-26T09:27:49.559Z,0.70
2024-01-26T09:31:04.216Z,0.55
2024-01-26T09:34:12.750Z,0.85
2024-01-26T09:37:27.736Z,0.55
2024-01-26T09:40:40.669Z,0.60
2024-01-26T09:43:54.353Z,1.15
2024-01-26T09:47:06.531Z,0.62
2024-01-26T09:50:20.111Z,1.02
2024-01-26T09:53:34.187Z,0.80
2024-01-26T09:56:47.677Z,0.90
2024-01-26T09:59:56.786Z,0.70
2024-01-26T10:03:08.422Z,0.55
2024-01-26T10:06:16.661Z,0.62
2024-01-26T10:09:28.166Z,0.82
2024-01-26T10:12:37.400Z,0.82
2024-01-26T10:15:52.956Z,0.88
2024-01-26T10:19:06.733Z,0.72
2024-01-26T10:22:21.307Z,1.00
2024-01-26T10:25:35.102Z,0.70
2024-01-26T10:28:49.104Z,0.70
2024-01-26T10:32:02.145Z,0.85
2024-01-26T10:35:14.778Z,1.07
2024-01-26T10:38:28.160Z,0.72
2024-01-26T10:44:51.112Z,0.50
2024-01-26T10:48:03.695Z,0.42
2024-01-26T10:51:16.362Z,0.62
2024-01-26T10:54:32.668Z,0.45
2024-01-26T10:57:44.738Z,0.72
2024-01-26T11:00:55.897Z,0.40
2024-01-26T11:04:04.808Z,1.00
2024-01-26T11:07:17.207Z,0.50
2024-01-26T11:10:31.041Z,0.70
2024-01-26T11:13:43.698Z,0.60
2024-01-26T11:16:54.639Z,0.40
2024-01-26T11:20:11.799Z,0.50
2024-01-26T11:23:25.923Z,0.80
2024-01-26T11:26:36.027Z,0.60
2024-01-26T11:29:48.584Z,0.82
2024-01-26T11:32:57.985Z,0.62
2024-01-26T11:36:15.248Z,0.75
2024-01-26T11:39:29.070Z,0.60
2024-01-26T11:42:39.843Z,0.88
2024-01-26T11:45:54.064Z,0.70
2024-01-26T11:49:06.275Z,1.02
2024-01-26T11:52:18.837Z,0.70
2024-01-26T11:55:30.168Z,0.50
2024-01-26T11:58:44.551Z,0.70
2024-01-26T12:01:52.108Z,0.47
2024-01-26T12:05:06.062Z,0.93
2024-01-26T12:08:18.357Z,0.45
2024-01-26T12:11:28.648Z,0.50
2024-01-26T12:14:41.602Z,0.50
2024-01-26T12:17:54.469Z,0.68
2024-01-26T12:21:07.174Z,1.20
2024-01-26T12:24:19.122Z,0.33
2024-01-26T12:27:31.058Z,0.62
2024-01-26T12:30:43.244Z,0.40
2024-01-26T12:33:54.840Z,0.30
2024-01-26T12:37:07.009Z,0.33
2024-01-26T12:40:18.723Z,0.60
2024-01-26T12:43:30.221Z,0.57
2024-01-26T12:46:41.748Z,0.35
2024-01-26T12:49:53.926Z,0.50
2024-01-26T12:53:06.753Z,0.50
2024-01-26T12:56:16.790Z,0.65
2024-01-26T12:59:27.657Z,0.78
2024-01-26T13:02:36.544Z,0.30
2024-01-26T13:05:48.235Z,0.68
2024-01-26T13:09:02.498Z,0.53
2024-01-26T13:12:14.217Z,0.57
2024-01-26T13:15:25.711Z,0.78
2024-01-26T13:18:39.552Z,0.50
2024-01-26T13:21:53.564Z,0.40
2024-01-26T13:25:05.423Z,0.30
2024-01-26T13:28:15.172Z,0.40
2024-01-26T13:31:25.019Z,0.60
2024-01-26T13:34:35.183Z,0.55
2024-01-26T13:37:47.377Z,0.60
2024-01-26T13:40:57.841Z,0.60
2024-01-26T13:44:11.190Z,0.40
2024-01-26T13:47:21.065Z,0.30
2024-01-26T13:50:35.192Z,0.42
2024-01-26T13:53:47.629Z,0.53
2024-01-26T13:56:59.859Z,0.62
2024-01-26T14:00:21.136Z,0.50
2024-01-26T14:03:23.836Z,0.90
2024-01-26T14:06:37.679Z,0.75
2024-01-26T14:09:51.950Z,0.55
2024-01-26T14:13:02.913Z,0.40
2024-01-26T14:16:15.115Z,0.50
2024-01-26T14:19:27.731Z,1.27
2024-01-26T14:22:39.621Z,0.57
2024-01-26T14:25:52.620Z,0.40
2024-01-26T14:29:04.068Z,0.82
2024-01-26T14:32:15.960Z,0.72
2024-01-26T14:35:31.085Z,0.57
2024-01-26T14:38:42.168Z,0.70
2024-01-26T14:41:53.408Z,0.62
2024-01-26T14:45:08.575Z,0.60
2024-01-26T14:48:20.601Z,0.40
2024-01-26T14:51:34.773Z,0.50
2024-01-26T14:54:45.950Z,0.40
2024-01-26T14:57:57.569Z,0.40
2024-01-26T15:01:10.683Z,1.00
2024-01-26T15:07:32.272Z,0.40
2024-01-26T15:10:45.960Z,0.82
2024-01-26T15:13:58.692Z,0.30
2024-01-26T15:17:06.735Z,0.40
2024-01-26T15:20:20.908Z,0.50
2024-01-26T15:23:33.847Z,0.78
2024-01-26T15:26:45.976Z,0.50
2024-01-26T15:29:54.295Z,0.65
2024-01-26T15:33:03.533Z,0.47
2024-01-26T15:36:19.846Z,0.45
2024-01-26T15:39:29.900Z,0.40
2024-01-26T15:42:44.031Z,0.42
2024-01-26T15:45:55.822Z,0.40
2024-01-26T15:49:08.836Z,0.50
2024-01-26T15:52:29.277Z,0.55
2024-01-26T15:55:36.070Z,0.40
2024-01-26T15:58:48.048Z,0.30
2024-01-26T16:01:59.562Z,0.75
2024-01-26T16:05:15.154Z,0.50
2024-01-26T16:08:26.625Z,0.57
2024-01-26T16:11:40.524Z,0.30
2024-01-26T16:14:53.706Z,0.42
2024-01-26T16:18:07.723Z,0.42
2024-01-26T16:21:19.674Z,0.47
2024-01-26T16:24:31.587Z,0.45
2024-01-26T16:27:42.023Z,0.42
2024-01-26T16:30:54.126Z,0.40
2024-01-26T16:34:06.429Z,0.88
2024-01-26T16:37:15.331Z,0.82
2024-01-26T16:40:25.937Z,0.50
2024-01-26T16:43:40.762Z,0.40
2024-01-26T16:46:52.226Z,0.35
2024-01-26T16:50:02.947Z,0.47
2024-01-26T16:53:16.538Z,0.50
2024-01-26T16:56:30.518Z,0.53
2024-01-26T16:59:44.579Z,0.47
2024-01-26T17:02:59.903Z,0.53
2024-01-26T17:06:15.855Z,0.30
2024-01-26T17:09:27.348Z,0.75
2024-01-26T17:12:39.285Z,0.50
2024-01-26T17:15:50.181Z,0.50
2024-01-26T17:19:02.760Z,0.50
2024-01-26T17:22:16.993Z,0.40
2024-01-26T17:25:29.477Z,0.40
2024-01-26T17:28:44.417Z,0.60
2024-01-26T17:31:55.513Z,0.50
2024-01-26T17:35:06.313Z,0.75
2024-01-26T17:38:19.823Z,0.50
2024-01-26T17:41:31.402Z,0.72
2024-01-26T17:44:44.135Z,0.60
2024-01-26T17:47:55.735Z,0.53
2024-01-26T17:51:06.605Z,0.47
2024-01-26T17:54:18.829Z,0.42
2024-01-26T17:57:30.330Z,0.65
2024-01-26T18:00:41.469Z,0.50
2024-01-26T18:03:53.879Z,0.47
2024-01-26T18:07:09.657Z,0.65
2024-01-26T18:10:24.083Z,0.50
2024-01-26T18:13:36.015Z,0.50
2024-01-26T18:16:47.569Z,0.55
2024-01-26T18:19:55.128Z,0.50
2024-01-26T18:23:15.938Z,0.70
2024-01-26T18:26:25.142Z,0.50
2024-01-26T18:29:39.010Z,0.40
2024-01-26T18:32:49.436Z,0.50
2024-01-26T18:36:00.265Z,0.50
2024-01-26T18:39:16.222Z,0.40
2024-01-26T18:42:25.747Z,0.50
2024-01-26T18:45:39.455Z,0.40
2024-01-26T18:48:51.203Z,0.53
2024-01-26T18:52:01.427Z,0.57
2024-01-26T18:55:14.178Z,0.50
2024-01-26T18:58:27.465Z,0.40
2024-01-26T19:01:41.831Z,0.42
2024-01-26T19:04:55.484Z,0.50
2024-01-26T19:08:07.273Z,0.40
2024-01-26T19:11:20.645Z,0.75
2024-01-26T19:14:35.035Z,0.50
2024-01-26T19:17:48.366Z,0.33
2024-01-26T19:24:14.125Z,0.50
2024-01-26T19:27:26.354Z,0.53
2024-01-26T19:30:37.791Z,0.35
2024-01-26T19:33:46.092Z,0.60
2024-01-26T19:36:59.457Z,0.55
2024-01-26T19:40:13.289Z,0.50
2024-01-26T19:43:25.592Z,0.68
2024-01-26T19:46:37.829Z,0.50
2024-01-26T19:49:52.046Z,0.40
2024-01-26T19:53:04.166Z,0.40
2024-01-26T19:56:17.595Z,0.40
2024-01-26T19:59:27.791Z,0.50
2024-01-26T20:02:38.727Z,0.37
2024-01-26T20:05:53.192Z,0.60
2024-01-26T20:09:06.146Z,0.40
2024-01-26T20:12:19.552Z,0.30
2024-01-26T20:15:30.923Z,0.37
2024-01-26T20:18:47.045Z,0.60
2024-01-26T20:22:00.059Z,0.50
2024-01-26T20:28:25.864Z,0.50
2024-01-26T20:31:38.881Z,0.50
2024-01-26T20:34:54.136Z,0.62
2024-01-26T20:38:09.005Z,0.30
2024-01-26T20:41:18.176Z,0.47
2024-01-26T20:44:30.132Z,0.62
2024-01-26T20:47:40.088Z,0.40
2024-01-26T20:50:53.867Z,0.78
2024-01-26T20:54:07.366Z,0.42
2024-01-26T20:57:17.672Z,0.70
2024-01-26T21:00:32.396Z,0.90
2024-01-26T21:03:46.770Z,0.30
2024-01-26T21:06:59.537Z,0.47
2024-01-26T21:10:11.656Z,0.30
2024-01-26T21:13:25.839Z,0.40
2024-01-26T21:16:42.316Z,0.47
2024-01-26T21:19:56.944Z,0.50
2024-01-26T21:23:09.914Z,0.65
2024-01-26T21:26:23.201Z,0.30
2024-01-26T21:29:35.957Z,0.45
2024-01-26T21:32:47.444Z,0.80
2024-01-26T21:36:02.112Z,0.68
2024-01-26T21:39:14.395Z,1.55
2024-01-26T21:42:26.070Z,0.60
2024-01-26T21:45:36.221Z,0.50
2024-01-26T21:48:48.124Z,0.60
2024-01-26T21:51:59.405Z,0.70
2024-01-26T21:55:15.664Z,0.80
2024-01-26T21:58:28.121Z,0.72
2024-01-26T22:01:41.927Z,0.60
2024-01-26T22:04:54.980Z,0.62
2024-01-26T22:08:04.644Z,0.82
2024-01-26T22:11:20.429Z,0.47
2024-01-26T22:14:34.039Z,0.60
2024-01-26T22:17:44.994Z,0.65
2024-01-26T22:20:54.323Z,0.90
2024-01-26T22:24:04.705Z,0.50
2024-01-26T22:27:17.033Z,0.40
2024-01-26T22:30:27.503Z,0.90
2024-01-26T22:33:39.166Z,0.68
2024-01-26T22:36:52.029Z,0.70
2024-01-26T22:40:04.647Z,0.60
2024-01-26T22:43:15.884Z,0.50
2024-01-26T22:46:25.472Z,0.47
2024-01-26T22:49:39.666Z,0.70
2024-01-26T22:52:52.252Z,0.62
2024-01-26T22:56:06.066Z,0.45
2024-01-26T22:59:18.100Z,0.60
2024-01-26T23:02:32.187Z,0.62
2024-01-26T23:05:47.175Z,0.42
2024-01-26T23:08:57.484Z,1.05
2024-01-26T23:12:08.970Z,0.62
2024-01-26T23:15:18.733Z,0.75
2024-01-26T23:18:32.728Z,0.68
2024-01-26T23:21:45.432Z,0.60
2024-01-26T23:24:58.010Z,0.90
2024-01-26T23:28:12.303Z,0.57
2024-01-26T23:31:27.030Z,0.90
2024-01-26T23:34:38.752Z,0.80
2024-01-26T23:37:51.707Z,0.70
2024-01-26T23:41:03.329Z,0.60
2024-01-26T23:44:15.822Z,0.50
2024-01-26T23:47:28.036Z,0.40
2024-01-26T23:50:38.910Z,0.47
2024-01-26T23:53:46.408Z,0.70
2024-01-26T23:57:00.808Z,0.80
